Stateline, NV

1:35 AM PDT on October 26, 2014 (GMT -0700)
Stateline, NV | Change Station
CLOSE
Current Station
Personal Weather Station
Location: Stateline, NV
Elevation: 6535 ft
Nearby Weather Stations

Elev 6535 ft 38.97 °N, 119.92 °W | Updated 20 minutes ago

Partly Cloudy
Partly Cloudy
37.4 °F
Feels Like 37 °F
N
0.0
Wind Variable Wind from WNW
Gusts 2.7 mph

Today
High -- | Low -- °F
--% Chance of Precip.
Yesterday
High -- | Low -- °F
Precip. -- in
7:20 AM 6:06 PM
Waxing Crescent, 6% visible
Pressure 30.06 in
Visibility 10.0 miles
Clouds Clear
Windchill 37 °F
Dew Point 23 °F
Humidity 56%
Rainfall 0.00 in
Snow Depth Not available.
UV 0 out of 12
Pollen 3.10 out of 12
Air Quality Not available.
Flu Activity No Activity
METAR KTVL 260753Z AUTO 31003KT 10SM CLR 01/M02 A3014 RMK AO2 SLP179 T00111022 401500011

More Conditions Fewer Conditions

Pressure 30.06 in
Visibility 10.0 miles
Clouds Clear
Windchill 37 °F
Dew Point 23 °F
Humidity 56%
Rainfall 0.00 in
Snow Depth Not available.
UV 0 out of 12
Pollen 3.10 out of 12
Air Quality Not available.
Flu Activity No Activity
METAR KTVL 260753Z AUTO 31003KT 10SM CLR 01/M02 A3014 RMK AO2 SLP179 T00111022 401500011

More Conditions Fewer Conditions

10-Day Weather Forecast

Almanac

Astronomy

Oct. 26, 2014 Rise Set
Actual Time 7:20 AM PDT 6:06 PM PDT
Civil Twilight 6:53 AM PDT 6:33 PM PDT
Nautical Twilight 6:22 AM PDT 7:04 PM PDT
Astronomical Twilight 5:51 AM PDT 7:35 PM PDT
Moon 10:02 AM PDT 8:22 PM PDT
Length of Visible Light 11h 40m
Length of Day
10h 45m
Tomorrow will be 2m 19s shorter.
Waxing Crescent, 6% of the Moon is Illuminated
Today
Waxing Crescent
Oct 30
First Quarter
Nov 6
Full
Nov 14
Last Quarter
Nov 22
New

Today's Extremes

State Highs State Lows

Community

WunderPhotos

Upload Photos

1,765,127 photos uploaded!

Nearby

Snow Depth

Station Depth Elevation
Marlette Lake 0 in 8000 ft
Big Meadow 0 in 8300 ft
Big Creek Summit 2 in 8700 ft
Lewis Peak 0 in 7400 ft
Lamance Creek 2 in 6000 ft

Earthquake Activity

City Distance Mag. Time & Date
Antioch, California 118 miles 2.7 6:42 AM PDT
2014-10-25
Gerlach-Empire, Nevada 92 miles 2.5 7:16 AM PDT
2014-10-23
Minimum magnitude displayed is 2.5.

Coastal Water Temperatures

Place Temperature
No Stations Reporting

Nearby Weather Stations